createdAt,value
2023-03-13T00:01:16.012Z,10.63
2023-03-13T00:03:44.044Z,12.40
2023-03-13T00:06:12.377Z,8.47
2023-03-13T00:08:40.842Z,9.77
2023-03-13T00:11:12.916Z,9.13
2023-03-13T00:13:41.184Z,9.73
2023-03-13T00:16:11.440Z,10.37
2023-03-13T00:18:40.992Z,10.00
2023-03-13T00:21:10.429Z,9.23
2023-03-13T00:23:39.497Z,8.70
2023-03-13T00:26:09.745Z,9.23
2023-03-13T00:28:39.562Z,14.53
2023-03-13T00:31:09.817Z,7.93
2023-03-13T00:33:40.895Z,9.93
2023-03-13T00:36:10.726Z,9.30
2023-03-13T00:38:38.846Z,11.70
2023-03-13T00:41:08.534Z,11.17
2023-03-13T00:43:36.686Z,9.00
2023-03-13T00:46:04.882Z,9.63
2023-03-13T00:48:33.576Z,7.97
2023-03-13T00:51:03.793Z,8.93
2023-03-13T00:53:31.831Z,14.17
2023-03-13T00:56:01.145Z,8.83
2023-03-13T00:58:30.884Z,8.23
2023-03-13T01:00:58.977Z,10.70
2023-03-13T01:03:27.426Z,8.13
2023-03-13T01:05:58.973Z,8.77
2023-03-13T01:08:29.718Z,8.37
2023-03-13T01:11:01.423Z,10.73
2023-03-13T01:13:30.413Z,8.33
2023-03-13T01:15:58.463Z,9.67
2023-03-13T01:18:26.501Z,11.47
2023-03-13T01:20:54.622Z,8.90
2023-03-13T01:23:22.630Z,8.73
2023-03-13T01:25:51.951Z,8.57
2023-03-13T01:28:19.913Z,7.60
2023-03-13T01:30:47.963Z,8.47
2023-03-13T01:33:15.942Z,10.10
2023-03-13T01:35:44.439Z,8.00
2023-03-13T01:38:12.466Z,9.10
2023-03-13T01:40:42.092Z,8.20
2023-03-13T01:43:26.789Z,7.50
2023-03-13T01:46:01.560Z,9.57
2023-03-13T01:48:38.799Z,9.47
2023-03-13T01:51:11.210Z,9.03
2023-03-13T01:53:42.493Z,9.73
2023-03-13T01:56:16.089Z,8.77
2023-03-13T01:58:46.305Z,8.77
2023-03-13T02:01:15.371Z,8.37
2023-03-13T02:03:44.611Z,8.20
2023-03-13T02:06:13.041Z,6.80
2023-03-13T02:08:47.088Z,7.63
2023-03-13T02:11:24.538Z,9.13
2023-03-13T02:13:56.764Z,7.33
2023-03-13T02:16:25.210Z,8.17
2023-03-13T02:18:53.221Z,7.20
2023-03-13T02:21:33.130Z,7.13
2023-03-13T02:24:10.863Z,7.23
2023-03-13T02:26:40.237Z,6.63
2023-03-13T02:29:08.280Z,8.20
2023-03-13T02:31:36.325Z,8.37
2023-03-13T02:34:04.964Z,7.47
2023-03-13T02:36:33.043Z,7.93
2023-03-13T02:39:05.533Z,9.73
2023-03-13T02:41:35.446Z,8.77
2023-03-13T02:44:05.927Z,7.57
2023-03-13T02:46:46.300Z,9.30
2023-03-13T02:49:26.394Z,8.77
2023-03-13T02:51:55.975Z,7.83
2023-03-13T02:54:27.881Z,9.67
2023-03-13T02:56:58.680Z,7.73
2023-03-13T02:59:28.119Z,8.27
2023-03-13T03:01:56.393Z,9.83
2023-03-13T03:04:27.103Z,9.10
2023-03-13T03:06:55.112Z,7.97
2023-03-13T03:09:23.932Z,10.57
2023-03-13T03:11:52.106Z,8.47
2023-03-13T03:14:20.097Z,8.40
2023-03-13T03:16:49.421Z,8.80
2023-03-13T03:19:17.436Z,10.10
2023-03-13T03:21:45.514Z,9.23
2023-03-13T03:24:13.553Z,8.70
2023-03-13T03:26:41.598Z,8.23
2023-03-13T03:29:11.062Z,9.17
2023-03-13T03:31:39.187Z,8.63
2023-03-13T03:34:08.597Z,9.77
2023-03-13T03:36:36.698Z,9.07
2023-03-13T03:39:05.315Z,10.50
2023-03-13T03:41:33.359Z,9.03
2023-03-13T03:44:01.302Z,11.43
2023-03-13T03:46:29.293Z,9.30
2023-03-13T03:48:57.313Z,10.03
2023-03-13T03:51:26.652Z,10.43
2023-03-13T03:53:54.770Z,11.53
2023-03-13T03:56:22.767Z,11.20
2023-03-13T03:58:50.741Z,11.57
2023-03-13T04:01:18.703Z,11.53
2023-03-13T04:03:48.389Z,12.50
2023-03-13T04:06:16.581Z,11.67
2023-03-13T04:08:45.921Z,11.80
2023-03-13T04:11:13.897Z,11.53
2023-03-13T04:13:41.862Z,10.80
2023-03-13T04:16:10.544Z,10.60
2023-03-13T04:18:38.604Z,12.00
2023-03-13T04:21:07.663Z,12.23
2023-03-13T04:23:35.660Z,14.03
2023-03-13T04:26:05.241Z,14.53
2023-03-13T04:28:33.193Z,11.47
2023-03-13T04:31:01.418Z,10.63
2023-03-13T04:33:29.448Z,12.67
2023-03-13T04:35:57.482Z,10.37
2023-03-13T04:38:25.556Z,13.07
2023-03-13T04:40:53.518Z,13.67
2023-03-13T04:43:22.854Z,13.37
2023-03-13T04:45:54.613Z,11.83
2023-03-13T04:48:22.861Z,12.40
2023-03-13T04:50:50.879Z,10.93
2023-03-13T04:53:19.353Z,11.50
2023-03-13T04:55:48.624Z,14.40
2023-03-13T04:58:16.549Z,11.50
2023-03-13T05:00:45.892Z,13.33
2023-03-13T05:03:14.271Z,14.07
2023-03-13T05:05:42.254Z,11.23
2023-03-13T05:08:10.908Z,12.80
2023-03-13T05:10:38.904Z,11.50
2023-03-13T05:13:06.917Z,13.03
2023-03-13T05:15:35.096Z,13.53
2023-03-13T05:18:04.640Z,11.77
2023-03-13T05:20:32.664Z,14.90
2023-03-13T05:23:00.652Z,13.73
2023-03-13T05:25:28.698Z,14.60
2023-03-13T05:27:56.688Z,12.97
2023-03-13T05:30:24.885Z,16.40
2023-03-13T05:32:52.933Z,15.97
2023-03-13T05:35:22.467Z,15.00
2023-03-13T05:37:50.566Z,17.67
2023-03-13T05:40:18.777Z,17.07
2023-03-13T05:42:47.186Z,19.07
2023-03-13T05:45:15.236Z,19.60
2023-03-13T05:47:43.233Z,20.57
2023-03-13T05:50:12.187Z,15.70
2023-03-13T05:52:41.614Z,14.40
2023-03-13T05:55:10.225Z,16.80
2023-03-13T05:57:38.231Z,16.83
2023-03-13T06:00:07.382Z,15.30
2023-03-13T06:02:35.476Z,13.87
2023-03-13T06:05:03.548Z,15.37
2023-03-13T06:07:31.591Z,17.03
2023-03-13T06:10:00.954Z,14.70
2023-03-13T06:12:29.051Z,16.63
2023-03-13T06:14:57.042Z,13.57
2023-03-13T06:17:25.624Z,16.43
2023-03-13T06:19:53.650Z,14.57
2023-03-13T06:22:21.621Z,13.70
2023-03-13T06:24:49.742Z,13.00
2023-03-13T06:27:19.117Z,15.17
2023-03-13T06:29:47.315Z,16.63
2023-03-13T06:32:15.540Z,15.40
2023-03-13T06:34:43.577Z,15.27
2023-03-13T06:37:11.580Z,16.23
2023-03-13T06:39:40.036Z,11.83
2023-03-13T06:42:08.849Z,13.83
2023-03-13T06:44:38.511Z,14.23
2023-03-13T06:47:06.856Z,17.70
2023-03-13T06:49:34.938Z,15.07
2023-03-13T06:52:02.919Z,13.33
2023-03-13T06:54:31.333Z,18.57
2023-03-13T06:56:59.280Z,13.57
2023-03-13T06:59:27.396Z,14.90
2023-03-13T07:01:56.751Z,14.97
2023-03-13T07:04:24.925Z,17.03
2023-03-13T07:06:53.250Z,17.17
2023-03-13T07:09:21.376Z,17.00
2023-03-13T07:11:49.482Z,14.23
2023-03-13T07:14:17.954Z,11.57
2023-03-13T07:16:46.686Z,14.50
2023-03-13T07:19:16.849Z,14.13
2023-03-13T07:21:45.155Z,12.43
2023-03-13T07:24:13.356Z,13.03
2023-03-13T07:26:48.515Z,14.57
2023-03-13T07:29:22.770Z,19.00
2023-03-13T07:31:50.959Z,15.20
2023-03-13T07:34:20.596Z,13.97
2023-03-13T07:36:48.593Z,16.57
2023-03-13T07:39:16.715Z,19.73
2023-03-13T07:41:44.718Z,12.93
2023-03-13T07:44:12.814Z,11.73
2023-03-13T07:46:40.783Z,14.00
2023-03-13T07:49:08.841Z,11.00
2023-03-13T07:51:43.898Z,11.33
2023-03-13T07:54:12.482Z,13.97
2023-03-13T07:56:41.077Z,14.80
2023-03-13T07:59:09.541Z,16.57
2023-03-13T08:01:37.745Z,12.80
2023-03-13T08:04:06.214Z,15.07
2023-03-13T08:06:36.697Z,12.23
2023-03-13T08:09:06.784Z,16.77
2023-03-13T08:11:35.101Z,14.37
2023-03-13T08:14:03.089Z,17.00
2023-03-13T08:16:34.360Z,17.70
2023-03-13T08:19:05.094Z,10.97
2023-03-13T08:21:35.109Z,12.73
2023-03-13T08:24:06.811Z,13.30
2023-03-13T08:26:38.076Z,13.77
2023-03-13T08:29:08.736Z,15.37
2023-03-13T08:31:38.711Z,15.43
2023-03-13T08:34:06.696Z,11.27
2023-03-13T08:36:36.137Z,14.60
2023-03-13T08:39:06.106Z,14.47
2023-03-13T08:41:37.159Z,13.67
2023-03-13T08:44:06.207Z,11.67
2023-03-13T08:46:36.230Z,12.87
2023-03-13T08:49:05.906Z,13.37
2023-03-13T08:51:34.341Z,13.67
2023-03-13T08:54:03.479Z,14.83
2023-03-13T08:56:35.172Z,12.30
2023-03-13T08:59:04.831Z,13.23
2023-03-13T09:01:35.167Z,12.33
2023-03-13T09:04:04.780Z,14.73
2023-03-13T09:06:33.474Z,14.47
2023-03-13T09:09:01.535Z,13.43
2023-03-13T09:11:29.625Z,12.63
2023-03-13T09:14:00.233Z,12.53
2023-03-13T09:16:30.459Z,12.83
2023-03-13T09:18:59.534Z,18.07
2023-03-13T09:21:29.536Z,12.87
2023-03-13T09:23:58.128Z,16.27
2023-03-13T09:26:27.578Z,13.63
2023-03-13T09:28:56.100Z,13.47
2023-03-13T09:31:27.347Z,14.20
2023-03-13T09:33:55.887Z,13.37
2023-03-13T09:36:24.795Z,14.03
2023-03-13T09:38:53.874Z,13.10
2023-03-13T09:41:25.764Z,13.27
2023-03-13T09:43:59.963Z,13.43
2023-03-13T09:46:36.350Z,15.02
2023-03-13T09:49:10.122Z,10.60
2023-03-13T09:51:41.190Z,12.80
2023-03-13T09:54:18.160Z,13.68
2023-03-13T09:56:48.953Z,14.98
2023-03-13T09:59:21.351Z,11.70
2023-03-13T10:01:51.538Z,11.20
2023-03-13T10:04:31.621Z,10.13
2023-03-13T10:06:59.701Z,10.85
2023-03-13T10:09:31.540Z,8.00
2023-03-13T10:12:08.627Z,11.13
2023-03-13T10:14:45.244Z,13.98
2023-03-13T10:17:27.332Z,12.02
2023-03-13T10:19:59.122Z,10.93
2023-03-13T10:22:30.164Z,9.43
2023-03-13T10:25:00.878Z,11.13
2023-03-13T10:27:28.879Z,10.82
2023-03-13T10:29:56.882Z,8.00
2023-03-13T10:32:28.140Z,9.25
2023-03-13T10:34:58.389Z,12.57
2023-03-13T10:37:28.730Z,8.50
2023-03-13T10:40:12.473Z,9.55
2023-03-13T10:42:45.240Z,9.15
2023-03-13T10:45:18.696Z,12.65
2023-03-13T10:47:55.799Z,11.98
2023-03-13T10:50:26.337Z,13.60
2023-03-13T10:52:55.442Z,11.00
2023-03-13T10:55:25.486Z,12.43
2023-03-13T10:57:58.807Z,15.55
2023-03-13T11:00:34.495Z,10.60
2023-03-13T11:03:08.016Z,10.52
2023-03-13T11:05:42.580Z,14.13
2023-03-13T11:08:19.641Z,13.77
2023-03-13T11:11:01.141Z,10.95
2023-03-13T11:13:37.938Z,9.52
2023-03-13T11:16:21.472Z,9.05
2023-03-13T11:19:20.123Z,11.80
2023-03-13T11:22:02.039Z,11.82
2023-03-13T11:24:39.577Z,14.15
2023-03-13T11:27:16.476Z,10.02
2023-03-13T11:29:55.169Z,14.85
2023-03-13T11:32:32.364Z,11.30
2023-03-13T11:35:08.329Z,9.00
2023-03-13T11:37:40.878Z,10.40
2023-03-13T11:40:20.563Z,11.98
2023-03-13T11:43:06.560Z,8.05
2023-03-13T11:45:56.045Z,10.68
2023-03-13T11:48:42.192Z,8.80
2023-03-13T11:51:20.948Z,10.57
2023-03-13T11:54:13.092Z,13.07
2023-03-13T11:56:45.543Z,10.50
2023-03-13T11:59:29.642Z,8.70
2023-03-13T12:02:02.039Z,12.98
2023-03-13T12:04:36.829Z,7.20
2023-03-13T12:07:09.767Z,6.75
2023-03-13T12:09:44.037Z,11.48
2023-03-13T12:12:20.575Z,8.65
2023-03-13T12:14:53.534Z,7.28
2023-03-13T12:17:33.153Z,8.05
2023-03-13T12:20:09.083Z,14.63
2023-03-13T12:22:46.482Z,10.30
2023-03-13T12:25:19.496Z,7.88
2023-03-13T12:27:52.929Z,7.47
2023-03-13T12:30:27.447Z,8.38
2023-03-13T12:33:04.512Z,8.73
2023-03-13T12:35:33.787Z,8.85
2023-03-13T12:38:07.792Z,8.07
2023-03-13T12:40:42.395Z,7.13
2023-03-13T12:43:15.583Z,10.98
2023-03-13T12:45:56.280Z,8.43
2023-03-13T12:49:01.520Z,10.48
2023-03-13T12:51:46.894Z,8.50
2023-03-13T12:54:36.080Z,8.32
2023-03-13T12:57:20.343Z,6.90
2023-03-13T12:59:51.405Z,10.57
2023-03-13T13:02:22.876Z,8.73
2023-03-13T13:04:53.584Z,7.95
2023-03-13T13:07:26.831Z,9.60
2023-03-13T13:10:17.504Z,11.60
2023-03-13T13:12:46.386Z,9.03
2023-03-13T13:15:23.565Z,9.93
2023-03-13T13:18:11.718Z,10.43
2023-03-13T13:20:50.155Z,8.45
2023-03-13T13:23:37.612Z,11.23
2023-03-13T13:26:48.480Z,9.07
2023-03-13T13:29:59.369Z,10.47
2023-03-13T13:32:46.952Z,8.03
2023-03-13T13:35:27.047Z,9.20
2023-03-13T13:38:22.384Z,10.63
2023-03-13T13:41:01.322Z,7.37
2023-03-13T13:43:33.433Z,7.80
2023-03-13T13:46:06.090Z,8.63
2023-03-13T13:48:37.985Z,9.80
2023-03-13T13:51:25.191Z,7.90
2023-03-13T13:53:56.086Z,10.37
2023-03-13T13:56:43.398Z,10.50
2023-03-13T13:59:42.103Z,10.03
2023-03-13T14:02:23.588Z,10.03
2023-03-13T14:05:00.440Z,9.37
2023-03-13T14:07:33.530Z,10.17
2023-03-13T14:10:07.342Z,16.73
2023-03-13T14:12:36.721Z,11.27
2023-03-13T14:15:10.317Z,10.37
2023-03-13T14:17:43.493Z,10.37
2023-03-13T14:20:32.157Z,10.60
2023-03-13T14:23:02.880Z,10.03
2023-03-13T14:25:43.595Z,10.80
2023-03-13T14:28:20.552Z,9.83
2023-03-13T14:30:51.756Z,10.53
2023-03-13T14:33:20.620Z,8.27
2023-03-13T14:35:50.425Z,10.70
2023-03-13T14:38:21.191Z,10.87
2023-03-13T14:40:50.381Z,12.13
2023-03-13T14:43:33.381Z,11.97
2023-03-13T14:46:02.130Z,10.60
2023-03-13T14:48:32.824Z,13.17
2023-03-13T14:51:15.522Z,12.03
2023-03-13T14:53:56.572Z,10.07
2023-03-13T14:56:34.000Z,10.53
2023-03-13T14:59:10.265Z,12.37
2023-03-13T15:01:38.258Z,13.07
2023-03-13T15:04:06.406Z,10.90
2023-03-13T15:06:35.832Z,10.47
2023-03-13T15:09:20.032Z,10.47
2023-03-13T15:11:57.038Z,10.73
2023-03-13T15:14:38.779Z,10.97
2023-03-13T15:17:14.921Z,11.03
2023-03-13T15:19:43.291Z,10.80
2023-03-13T15:22:16.159Z,12.03
2023-03-13T15:24:56.179Z,11.17
2023-03-13T15:27:33.176Z,10.50
2023-03-13T15:30:01.198Z,12.87
2023-03-13T15:32:31.282Z,9.43
2023-03-13T15:35:01.815Z,10.47
2023-03-13T15:37:32.240Z,9.63
2023-03-13T15:40:00.432Z,11.67
2023-03-13T15:42:28.514Z,11.17
2023-03-13T15:44:56.524Z,11.17
2023-03-13T15:47:24.581Z,14.83
2023-03-13T15:49:52.579Z,11.17
2023-03-13T15:52:23.538Z,9.67
2023-03-13T15:54:52.989Z,13.40
2023-03-13T15:57:24.222Z,10.77
2023-03-13T15:59:52.440Z,9.97
2023-03-13T16:02:22.478Z,11.57
2023-03-13T16:04:51.245Z,10.43
2023-03-13T16:07:20.967Z,9.63
2023-03-13T16:09:49.682Z,9.07
2023-03-13T16:12:19.068Z,11.83
2023-03-13T16:14:47.086Z,11.07
2023-03-13T16:17:18.072Z,10.93
2023-03-13T16:19:47.065Z,11.07
2023-03-13T16:22:15.491Z,10.57
2023-03-13T16:24:43.530Z,10.83
2023-03-13T16:27:16.949Z,11.43
2023-03-13T16:29:47.157Z,11.03
2023-03-13T16:32:17.229Z,10.90
2023-03-13T16:34:45.384Z,10.40
2023-03-13T16:37:14.605Z,11.53
2023-03-13T16:39:44.109Z,10.97
2023-03-13T16:42:12.661Z,11.37
2023-03-13T16:44:40.689Z,13.40
2023-03-13T16:47:19.315Z,9.43
2023-03-13T16:49:47.792Z,10.87
2023-03-13T16:52:16.525Z,12.03
2023-03-13T16:54:45.054Z,10.83
2023-03-13T16:57:15.225Z,9.80
2023-03-13T16:59:43.245Z,12.23
2023-03-13T17:02:17.811Z,13.60
2023-03-13T17:04:46.240Z,9.43
2023-03-13T17:07:20.560Z,12.80
2023-03-13T17:09:48.807Z,11.03
2023-03-13T17:12:17.214Z,10.63
2023-03-13T17:14:45.673Z,12.43
2023-03-13T17:17:17.450Z,12.57
2023-03-13T17:19:45.799Z,12.07
2023-03-13T17:22:14.632Z,10.00
2023-03-13T17:24:43.455Z,13.03
2023-03-13T17:27:13.790Z,15.13
2023-03-13T17:29:41.986Z,13.23
2023-03-13T17:32:11.791Z,13.20
2023-03-13T17:34:41.557Z,11.63
2023-03-13T17:37:15.977Z,12.27
2023-03-13T17:39:44.589Z,13.50
2023-03-13T17:42:12.837Z,11.67
2023-03-13T17:44:41.260Z,12.63
2023-03-13T17:47:14.537Z,12.07
2023-03-13T17:49:44.594Z,13.77
2023-03-13T17:52:16.874Z,12.30
2023-03-13T17:54:45.929Z,11.80
2023-03-13T17:57:17.117Z,12.23
2023-03-13T17:59:45.762Z,11.03
2023-03-13T18:02:15.456Z,14.23
2023-03-13T18:04:45.644Z,10.83
2023-03-13T18:07:22.309Z,13.40
2023-03-13T18:09:50.297Z,11.97
2023-03-13T18:12:18.682Z,12.37
2023-03-13T18:14:47.135Z,12.63
2023-03-13T18:17:17.678Z,12.40
2023-03-13T18:19:47.071Z,15.23
2023-03-13T18:22:17.649Z,14.63
2023-03-13T18:24:46.100Z,14.70
2023-03-13T18:27:15.962Z,14.17
2023-03-13T18:29:44.934Z,14.10
2023-03-13T18:32:15.424Z,13.67
2023-03-13T18:34:43.775Z,15.50
2023-03-13T18:37:20.943Z,13.33
2023-03-13T18:39:49.986Z,13.07
2023-03-13T18:42:18.153Z,14.07
2023-03-13T18:44:46.130Z,14.57
2023-03-13T18:47:16.231Z,14.33
2023-03-13T18:49:44.386Z,12.23
2023-03-13T18:52:13.030Z,14.50
2023-03-13T18:54:42.496Z,15.43
2023-03-13T18:57:14.487Z,16.10
2023-03-13T18:59:43.059Z,14.40
2023-03-13T19:02:14.787Z,15.37
2023-03-13T19:04:43.049Z,15.10
2023-03-13T19:07:21.093Z,14.47
2023-03-13T19:09:50.446Z,11.23
2023-03-13T19:12:18.498Z,18.80
2023-03-13T19:14:46.491Z,15.77
2023-03-13T19:17:19.818Z,14.23
2023-03-13T19:19:47.847Z,11.73
2023-03-13T19:22:16.045Z,11.60
2023-03-13T19:24:44.192Z,12.20
2023-03-13T19:27:16.862Z,12.20
2023-03-13T19:29:45.732Z,13.50
2023-03-13T19:32:15.194Z,13.60
2023-03-13T19:34:43.150Z,9.90
2023-03-13T19:37:11.791Z,11.23
2023-03-13T19:39:39.792Z,11.73
2023-03-13T19:42:08.313Z,10.67
2023-03-13T19:44:38.390Z,13.20
2023-03-13T19:47:06.497Z,11.53
2023-03-13T19:49:34.741Z,11.73
2023-03-13T19:52:02.745Z,9.53
2023-03-13T19:54:30.689Z,11.13
2023-03-13T19:56:58.778Z,9.37
2023-03-13T19:59:27.728Z,8.70
2023-03-13T20:01:57.270Z,9.17
2023-03-13T20:04:25.264Z,10.20
2023-03-13T20:06:53.262Z,11.37
2023-03-13T20:09:21.597Z,11.40
2023-03-13T20:11:49.736Z,12.93
2023-03-13T20:14:18.095Z,11.90
2023-03-13T20:16:48.885Z,10.77
2023-03-13T20:19:18.407Z,9.50
2023-03-13T20:21:46.697Z,10.83
2023-03-13T20:24:14.671Z,15.43
2023-03-13T20:26:42.872Z,11.77
2023-03-13T20:29:10.840Z,11.00
2023-03-13T20:31:38.804Z,10.40
2023-03-13T20:34:06.817Z,10.13
2023-03-13T20:36:36.128Z,9.10
2023-03-13T20:39:05.523Z,9.10
2023-03-13T20:41:33.669Z,11.50
2023-03-13T20:44:01.652Z,10.70
2023-03-13T20:46:29.703Z,6.90
2023-03-13T20:48:59.007Z,9.13
2023-03-13T20:51:27.798Z,11.60
2023-03-13T20:53:57.177Z,8.97
2023-03-13T20:56:25.305Z,8.53
2023-03-13T20:58:53.522Z,10.90
2023-03-13T21:01:22.535Z,9.23
2023-03-13T21:03:50.581Z,8.43
2023-03-13T21:06:19.610Z,8.00
2023-03-13T21:08:47.917Z,9.27
2023-03-13T21:11:19.235Z,7.13
2023-03-13T21:13:47.760Z,9.13
2023-03-13T21:16:16.706Z,6.80
2023-03-13T21:18:44.711Z,8.43
2023-03-13T21:21:17.072Z,11.37
2023-03-13T21:23:45.261Z,8.80
2023-03-13T21:26:13.603Z,8.33
2023-03-13T21:28:43.222Z,7.95
2023-03-13T21:31:13.141Z,9.70
2023-03-13T21:33:42.127Z,9.70
2023-03-13T21:36:11.189Z,8.93
2023-03-13T21:38:39.605Z,8.80
2023-03-13T21:41:12.198Z,8.30
2023-03-13T21:43:42.519Z,9.30
2023-03-13T21:46:11.273Z,10.53
2023-03-13T21:48:39.382Z,7.60
2023-03-13T21:51:07.991Z,7.90
2023-03-13T21:53:36.543Z,9.48
2023-03-13T21:56:05.565Z,9.43
2023-03-13T21:58:33.555Z,7.93
2023-03-13T22:01:03.114Z,11.90
2023-03-13T22:03:31.820Z,9.20
2023-03-13T22:05:59.914Z,10.03
2023-03-13T22:08:27.849Z,8.27
2023-03-13T22:10:55.904Z,11.70
2023-03-13T22:13:23.902Z,9.37
2023-03-13T22:15:52.780Z,14.67
2023-03-13T22:18:22.128Z,9.27
2023-03-13T22:20:50.106Z,8.70
2023-03-13T22:23:18.146Z,10.03
2023-03-13T22:25:48.028Z,11.27
2023-03-13T22:28:16.038Z,9.10
2023-03-13T22:30:45.824Z,10.63
2023-03-13T22:33:14.027Z,8.53
2023-03-13T22:35:45.170Z,10.77
2023-03-13T22:38:13.170Z,10.20
2023-03-13T22:40:41.135Z,7.50
2023-03-13T22:43:09.251Z,10.40
2023-03-13T22:45:37.554Z,7.20
2023-03-13T22:48:06.657Z,7.90
2023-03-13T22:50:35.085Z,7.53
2023-03-13T22:53:04.657Z,8.20
2023-03-13T22:55:33.634Z,10.27
2023-03-13T22:58:01.907Z,7.83
2023-03-13T23:00:29.942Z,7.90
2023-03-13T23:02:57.912Z,7.30
2023-03-13T23:05:25.873Z,8.70
2023-03-13T23:07:53.848Z,9.73
2023-03-13T23:10:23.229Z,7.83
2023-03-13T23:12:51.209Z,8.17
2023-03-13T23:15:19.239Z,8.30
2023-03-13T23:17:47.178Z,7.33
2023-03-13T23:20:16.148Z,9.30
2023-03-13T23:22:45.668Z,13.03
2023-03-13T23:25:14.932Z,8.97
2023-03-13T23:27:44.443Z,9.37
2023-03-13T23:30:14.661Z,9.23
2023-03-13T23:32:45.257Z,8.63
2023-03-13T23:35:16.868Z,10.50
2023-03-13T23:37:49.159Z,8.30
2023-03-13T23:40:17.540Z,9.17
2023-03-13T23:42:47.681Z,8.93
2023-03-13T23:45:15.752Z,7.93
2023-03-13T23:47:46.064Z,10.43
2023-03-13T23:50:15.292Z,8.93
2023-03-13T23:52:43.595Z,9.63
2023-03-13T23:55:12.043Z,9.40
2023-03-13T23:57:40.040Z,9.43
